Time;durP1;ratioP1;P1;durP2;ratioP2;P2;SDS_P1;SDS_P2;PMS_P1;PMS_P2;Temp;Humidity;BMP_temperature;BMP_pressure;BME280_temperature;BME280_humidity;BME280_pressure;Samples;Min_cycle;Max_cycle;Signal;HPM_P1;HPM_P2
2022/03/16 00:01:15;;;;;;;;;;;14.80;91.50;;;;;;5249665;28;20277;-32
2022/03/16 00:03:46;;;;;;;;;;;14.80;91.50;;;;;;5249111;28;19920;-28
2022/03/16 00:06:16;;;;;;;;;;;14.80;91.50;;;;;;5249362;28;19920;-29
2022/03/16 00:08:47;;;;;;;;;;;14.80;91.50;;;;;;5249286;28;20396;-30
2022/03/16 00:11:18;;;;;;;;;;;14.80;91.50;;;;;;5248954;28;19920;-29
2022/03/16 00:13:52;;;;;;;;;;;14.80;91.40;;;;;;5249165;28;19924;-33
2022/03/16 00:16:23;;;;;;;;;;;14.80;91.50;;;;;;5231289;28;20358;-32
2022/03/16 00:18:54;;;;;;;;;;;14.80;91.40;;;;;;5249148;28;19931;-29
2022/03/16 00:21:25;;;;;;;;;;;14.80;91.40;;;;;;5249118;28;19931;-30
2022/03/16 00:23:56;;;;;;;;;;;14.80;91.40;;;;;;5249317;28;19928;-29
2022/03/16 00:26:27;;;;;;;;;;;14.80;91.40;;;;;;5231293;28;19920;-31
2022/03/16 00:28:58;;;;;;;;;;;14.80;91.30;;;;;;5248956;28;19964;-29
2022/03/16 00:31:28;;;;;;;;;;;14.80;91.30;;;;;;5248471;28;20392;-31
2022/03/16 00:34:00;;;;;;;;;;;14.80;91.30;;;;;;5249171;28;20281;-29
2022/03/16 00:36:31;;;;;;;;;;;14.80;91.20;;;;;;5249100;28;19920;-30
2022/03/16 00:39:03;;;;;;;;;;;14.80;91.30;;;;;;5248864;28;19920;-32
2022/03/16 00:41:34;;;;;;;;;;;14.80;91.30;;;;;;5248791;28;19920;-30
2022/03/16 00:44:05;;;;;;;;;;;14.70;91.30;;;;;;5230880;28;19970;-32
2022/03/16 00:46:36;;;;;;;;;;;14.70;91.30;;;;;;5230930;28;19982;-32
2022/03/16 00:49:10;;;;;;;;;;;14.70;91.30;;;;;;5249492;28;19956;-30
2022/03/16 00:51:40;;;;;;;;;;;14.80;91.40;;;;;;5249285;28;20357;-30
2022/03/16 00:54:11;;;;;;;;;;;14.70;91.40;;;;;;5248466;28;19932;-29
2022/03/16 00:56:42;;;;;;;;;;;14.70;91.40;;;;;;5248816;28;19920;-29
2022/03/16 00:59:13;;;;;;;;;;;14.70;91.50;;;;;;5248788;28;19962;-29
2022/03/16 01:01:44;;;;;;;;;;;14.70;91.60;;;;;;5248758;28;19959;-30
2022/03/16 01:04:15;;;;;;;;;;;14.70;91.60;;;;;;5248515;28;19925;-30
2022/03/16 01:06:46;;;;;;;;;;;14.70;91.40;;;;;;5248330;28;19920;-33
2022/03/16 01:09:17;;;;;;;;;;;14.70;91.40;;;;;;5231090;28;19924;-30
2022/03/16 01:11:48;;;;;;;;;;;14.70;91.40;;;;;;5248381;28;20396;-29
2022/03/16 01:14:19;;;;;;;;;;;14.70;91.30;;;;;;5230720;28;19970;-30
2022/03/16 01:16:49;;;;;;;;;;;14.70;91.30;;;;;;5248290;28;19924;-30
2022/03/16 01:19:21;;;;;;;;;;;14.70;91.20;;;;;;5251577;28;19973;-34
2022/03/16 01:21:53;;;;;;;;;;;14.70;91.10;;;;;;5252626;28;20315;-30
2022/03/16 01:24:24;;;;;;;;;;;14.70;91.20;;;;;;5235007;28;19932;-29
2022/03/16 01:26:55;;;;;;;;;;;14.70;91.10;;;;;;5252004;28;20324;-30
2022/03/16 01:29:26;;;;;;;;;;;14.70;91.10;;;;;;5252264;28;19920;-32
2022/03/16 01:31:57;;;;;;;;;;;14.70;91.10;;;;;;5252020;28;20273;-30
2022/03/16 01:34:28;;;;;;;;;;;14.70;91.10;;;;;;5234230;28;19921;-28
2022/03/16 01:37:01;;;;;;;;;;;14.70;91.00;;;;;;5252257;28;19920;-29
2022/03/16 01:39:33;;;;;;;;;;;14.70;91.10;;;;;;5234263;28;19921;-32
2022/03/16 01:42:03;;;;;;;;;;;14.70;91.10;;;;;;5251822;28;19920;-32
2022/03/16 01:44:45;;;;;;;;;;;14.70;91.10;;;;;;5251738;28;19931;-30
2022/03/16 01:47:17;;;;;;;;;;;14.70;91.10;;;;;;5251606;28;19920;-29
2022/03/16 01:49:48;;;;;;;;;;;14.70;91.10;;;;;;5234008;28;20309;-29
2022/03/16 01:52:21;;;;;;;;;;;14.70;91.20;;;;;;5251597;28;19942;-29
2022/03/16 01:54:52;;;;;;;;;;;14.70;91.20;;;;;;5233601;28;19920;-29
2022/03/16 01:57:23;;;;;;;;;;;14.70;91.20;;;;;;5251730;28;20404;-29
2022/03/16 01:59:54;;;;;;;;;;;14.70;91.10;;;;;;5251538;28;19921;-30
2022/03/16 02:02:25;;;;;;;;;;;14.70;91.10;;;;;;5251347;28;20396;-32
2022/03/16 02:04:56;;;;;;;;;;;14.70;91.20;;;;;;5251392;28;19926;-29
2022/03/16 02:07:27;;;;;;;;;;;14.70;91.20;;;;;;5251313;28;19920;-33
2022/03/16 02:10:00;;;;;;;;;;;14.60;91.20;;;;;;5250084;28;20026;-31
2022/03/16 02:12:40;;;;;;;;;;;14.70;91.20;;;;;;5251304;28;19927;-30
2022/03/16 02:15:11;;;;;;;;;;;14.70;91.20;;;;;;5233548;28;20328;-30
2022/03/16 02:17:42;;;;;;;;;;;14.70;91.20;;;;;;5233710;28;19924;-29
2022/03/16 02:20:13;;;;;;;;;;;14.70;91.30;;;;;;5250854;28;19920;-30
2022/03/16 02:22:57;;;;;;;;;;;14.60;91.30;;;;;;5251133;28;20294;-32
2022/03/16 02:25:28;;;;;;;;;;;14.70;91.30;;;;;;5250628;28;19928;-30
2022/03/16 02:28:00;;;;;;;;;;;14.70;91.30;;;;;;5233443;28;20018;-30
2022/03/16 02:30:31;;;;;;;;;;;14.70;91.30;;;;;;5232638;28;19936;-29
2022/03/16 02:33:01;;;;;;;;;;;14.60;91.30;;;;;;5250874;28;19928;-28
2022/03/16 02:35:32;;;;;;;;;;;14.70;91.40;;;;;;5250860;28;19927;-33
2022/03/16 02:38:03;;;;;;;;;;;14.70;91.30;;;;;;5250695;28;19955;-30
2022/03/16 02:40:35;;;;;;;;;;;14.70;91.40;;;;;;5233368;28;19920;-30
2022/03/16 02:43:05;;;;;;;;;;;14.70;91.40;;;;;;5250415;28;19926;-30
2022/03/16 02:45:36;;;;;;;;;;;14.70;91.40;;;;;;5250617;28;19920;-32
2022/03/16 02:48:07;;;;;;;;;;;14.70;91.40;;;;;;5250567;28;20380;-30
2022/03/16 02:50:38;;;;;;;;;;;14.70;91.50;;;;;;5250347;28;20311;-29
2022/03/16 02:53:09;;;;;;;;;;;14.70;91.50;;;;;;5250418;28;19920;-31
2022/03/16 02:55:40;;;;;;;;;;;14.70;91.80;;;;;;5250500;28;19966;-34
2022/03/16 02:58:11;;;;;;;;;;;14.70;91.60;;;;;;5250314;28;19968;-29
2022/03/16 03:00:42;;;;;;;;;;;14.70;91.60;;;;;;5250621;28;20362;-31
2022/03/16 03:03:13;;;;;;;;;;;14.60;91.60;;;;;;5232406;28;19970;-29
2022/03/16 03:05:44;;;;;;;;;;;14.60;91.50;;;;;;5250787;28;19959;-29
2022/03/16 03:08:15;;;;;;;;;;;14.70;91.60;;;;;;5232708;28;19947;-29
2022/03/16 03:10:48;;;;;;;;;;;14.70;91.50;;;;;;5249836;28;19920;-32
2022/03/16 03:13:19;;;;;;;;;;;14.70;91.50;;;;;;5250161;28;19928;-29
2022/03/16 03:15:50;;;;;;;;;;;14.70;91.60;;;;;;5249927;28;19928;-30
2022/03/16 03:18:21;;;;;;;;;;;14.60;91.50;;;;;;5249987;28;19974;-31
2022/03/16 03:20:52;;;;;;;;;;;14.70;91.50;;;;;;5250242;28;19920;-29
2022/03/16 03:23:22;;;;;;;;;;;14.60;91.40;;;;;;5249979;28;20373;-30
2022/03/16 03:25:53;;;;;;;;;;;14.60;91.40;;;;;;5249793;28;19927;-29
2022/03/16 03:28:24;;;;;;;;;;;14.60;91.40;;;;;;5249761;28;20003;-30
2022/03/16 03:30:55;;;;;;;;;;;14.60;91.40;;;;;;5249274;28;19947;-29
2022/03/16 03:33:26;;;;;;;;;;;14.60;91.40;;;;;;5231745;28;19920;-29
2022/03/16 03:35:57;;;;;;;;;;;14.60;91.40;;;;;;5249480;28;19932;-29
2022/03/16 03:38:28;;;;;;;;;;;14.60;91.40;;;;;;5249551;28;20372;-31
2022/03/16 03:40:59;;;;;;;;;;;14.60;91.40;;;;;;5249083;28;19920;-29
2022/03/16 03:43:30;;;;;;;;;;;14.60;91.40;;;;;;5249907;28;19924;-33
2022/03/16 03:46:01;;;;;;;;;;;14.60;91.40;;;;;;5249805;28;19920;-30
2022/03/16 03:48:31;;;;;;;;;;;14.60;91.40;;;;;;5249313;28;19966;-29
2022/03/16 03:51:02;;;;;;;;;;;14.60;91.40;;;;;;5249324;28;19943;-29
2022/03/16 03:53:33;;;;;;;;;;;14.60;91.60;;;;;;5249031;28;19927;-30
2022/03/16 03:56:04;;;;;;;;;;;14.60;91.60;;;;;;5249294;28;19924;-29
2022/03/16 03:58:37;;;;;;;;;;;14.60;91.60;;;;;;5249188;28;19920;-29
2022/03/16 04:01:08;;;;;;;;;;;14.60;91.60;;;;;;5249345;28;20369;-30
2022/03/16 04:03:39;;;;;;;;;;;14.60;91.60;;;;;;5249247;28;19921;-31
2022/03/16 04:06:10;;;;;;;;;;;14.60;91.60;;;;;;5250231;28;20358;-33
2022/03/16 04:08:42;;;;;;;;;;;14.60;91.70;;;;;;5231961;28;19920;-31
2022/03/16 04:11:13;;;;;;;;;;;14.60;91.70;;;;;;5249232;28;20366;-31
2022/03/16 04:13:44;;;;;;;;;;;14.60;91.70;;;;;;5248930;28;19931;-30
2022/03/16 04:16:15;;;;;;;;;;;14.60;91.60;;;;;;5249095;28;19921;-30
2022/03/16 04:18:46;;;;;;;;;;;14.60;91.60;;;;;;5249542;28;20354;-32
2022/03/16 04:21:17;;;;;;;;;;;14.60;91.60;;;;;;5249054;28;19920;-30
2022/03/16 04:23:49;;;;;;;;;;;14.60;91.60;;;;;;5249126;28;19927;-30
2022/03/16 04:26:20;;;;;;;;;;;14.60;91.50;;;;;;5249096;28;19927;-30
2022/03/16 04:28:51;;;;;;;;;;;14.60;91.50;;;;;;5248827;28;19920;-30
2022/03/16 04:31:22;;;;;;;;;;;14.60;91.50;;;;;;5249353;28;19920;-31
2022/03/16 04:33:52;;;;;;;;;;;14.60;91.50;;;;;;5249007;28;19966;-32
2022/03/16 04:36:23;;;;;;;;;;;14.60;91.60;;;;;;5248860;28;19920;-32
2022/03/16 04:38:55;;;;;;;;;;;14.60;91.60;;;;;;5248944;28;19924;-30
2022/03/16 04:41:26;;;;;;;;;;;14.60;91.50;;;;;;5231138;28;20013;-32
2022/03/16 04:43:57;;;;;;;;;;;14.60;91.50;;;;;;5230844;28;20376;-29
2022/03/16 04:46:28;;;;;;;;;;;14.60;91.50;;;;;;5248896;28;19920;-30
2022/03/16 04:48:59;;;;;;;;;;;14.60;91.50;;;;;;5248830;28;19920;-29
2022/03/16 04:51:30;;;;;;;;;;;14.60;91.50;;;;;;5248738;28;20258;-29
2022/03/16 04:54:01;;;;;;;;;;;14.60;91.60;;;;;;5251142;28;19920;-31
2022/03/16 04:56:34;;;;;;;;;;;14.60;91.50;;;;;;5252779;28;20023;-32
2022/03/16 04:59:05;;;;;;;;;;;14.60;91.50;;;;;;5253007;28;19924;-33
2022/03/16 05:01:36;;;;;;;;;;;14.60;91.60;;;;;;5252569;28;19920;-29
2022/03/16 05:04:06;;;;;;;;;;;14.60;91.60;;;;;;5234777;28;19921;-32
2022/03/16 05:06:37;;;;;;;;;;;14.60;91.70;;;;;;5252640;28;20358;-30
2022/03/16 05:09:08;;;;;;;;;;;14.60;91.70;;;;;;5252572;28;19966;-28
2022/03/16 05:11:41;;;;;;;;;;;14.60;91.80;;;;;;5252538;28;20026;-29
2022/03/16 05:14:12;;;;;;;;;;;14.60;91.80;;;;;;5252343;28;19966;-29
2022/03/16 05:16:43;;;;;;;;;;;14.60;91.90;;;;;;5252333;28;20358;-30
2022/03/16 05:19:14;;;;;;;;;;;14.60;91.90;;;;;;5252513;28;19970;-30
2022/03/16 05:21:45;;;;;;;;;;;14.60;91.90;;;;;;5252298;28;19924;-31
2022/03/16 05:24:19;;;;;;;;;;;14.60;92.00;;;;;;5234298;28;20046;-29
2022/03/16 05:26:50;;;;;;;;;;;14.60;92.00;;;;;;5252098;28;19973;-30
2022/03/16 05:29:21;;;;;;;;;;;14.60;92.00;;;;;;5252154;28;20312;-29
2022/03/16 05:31:52;;;;;;;;;;;14.60;92.00;;;;;;5252022;28;19955;-29
2022/03/16 05:34:23;;;;;;;;;;;14.60;91.90;;;;;;5252103;28;19967;-31
2022/03/16 05:36:54;;;;;;;;;;;14.60;91.90;;;;;;5251968;28;19935;-30
2022/03/16 05:39:25;;;;;;;;;;;14.60;91.90;;;;;;5233763;28;20370;-31
2022/03/16 05:41:56;;;;;;;;;;;14.60;91.90;;;;;;5251329;28;19920;-33
2022/03/16 05:44:27;;;;;;;;;;;14.60;91.90;;;;;;5251888;28;19942;-33
2022/03/16 05:46:58;;;;;;;;;;;14.60;91.90;;;;;;5251725;28;20019;-29
2022/03/16 05:49:29;;;;;;;;;;;14.60;91.90;;;;;;5261053;28;20023;-31
2022/03/16 05:52:00;;;;;;;;;;;14.60;91.90;;;;;;5250618;28;19979;-29
2022/03/16 05:54:30;;;;;;;;;;;14.60;91.90;;;;;;5264150;28;20315;-32
2022/03/16 05:57:02;;;;;;;;;;;14.60;92.00;;;;;;5250555;28;19924;-29
2022/03/16 05:59:33;;;;;;;;;;;14.60;91.90;;;;;;5233494;28;19920;-30
2022/03/16 06:02:04;;;;;;;;;;;14.60;90.80;;;;;;5251337;28;20356;-32
2022/03/16 06:04:35;;;;;;;;;;;14.60;90.50;;;;;;5250910;28;19952;-31
2022/03/16 06:07:06;;;;;;;;;;;14.60;90.40;;;;;;5251355;28;19963;-29
2022/03/16 06:09:37;;;;;;;;;;;14.70;90.30;;;;;;5246787;28;19963;-30
2022/03/16 06:12:09;;;;;;;;;;;14.80;90.20;;;;;;5218939;28;20640;-30
2022/03/16 06:14:40;;;;;;;;;;;14.90;91.60;;;;;;5240763;28;19925;-29
2022/03/16 06:17:11;;;;;;;;;;;15.10;93.50;;;;;;5217512;28;19920;-30
2022/03/16 06:19:42;;;;;;;;;;;15.20;93.50;;;;;;5242491;28;19928;-33
2022/03/16 06:22:12;;;;;;;;;;;15.40;93.60;;;;;;5242598;28;19940;-32
2022/03/16 06:24:43;;;;;;;;;;;15.40;93.50;;;;;;5245448;28;19959;-29
2022/03/16 06:27:14;;;;;;;;;;;15.50;93.30;;;;;;5243144;28;20400;-28
2022/03/16 06:29:45;;;;;;;;;;;15.50;93.10;;;;;;5238857;28;19924;-31
2022/03/16 06:32:16;;;;;;;;;;;15.50;92.70;;;;;;5242293;28;20259;-31
2022/03/16 06:34:47;;;;;;;;;;;15.50;92.80;;;;;;5245449;28;19970;-30
2022/03/16 06:37:18;;;;;;;;;;;15.60;92.50;;;;;;5242203;28;19920;-29
2022/03/16 06:39:49;;;;;;;;;;;15.50;92.40;;;;;;5239033;28;20023;-32
2022/03/16 06:42:20;;;;;;;;;;;15.60;92.10;;;;;;5241886;28;20285;-29
2022/03/16 06:44:50;;;;;;;;;;;15.60;92.10;;;;;;5241307;28;19931;-33
2022/03/16 06:47:21;;;;;;;;;;;15.60;92.80;;;;;;5259321;28;19935;-30
2022/03/16 06:49:54;;;;;;;;;;;15.60;94.50;;;;;;5242392;28;20297;-29
2022/03/16 06:52:25;;;;;;;;;;;15.60;95.70;;;;;;5238448;28;20714;-29
2022/03/16 06:54:55;;;;;;;;;;;15.60;95.70;;;;;;5230311;28;19920;-31
2022/03/16 06:57:27;;;;;;;;;;;15.10;90.50;;;;;;5242243;28;19920;-29
2022/03/16 06:59:58;;;;;;;;;;;14.40;91.40;;;;;;5257204;28;19920;-31
2022/03/16 07:02:29;;;;;;;49.80;41.53;;;13.90;92.10;;;;;;5237341;28;19942;-30
2022/03/16 07:05:00;;;;;;;;;;;13.60;92.60;;;;;;5204665;28;20052;-28
2022/03/16 07:07:31;;;;;;;;;;;13.40;92.80;;;;;;5238426;28;19928;-30
2022/03/16 07:10:02;;;;;;;;;;;13.20;92.90;;;;;;5240787;28;19920;-28
2022/03/16 07:12:34;;;;;;;;;;;13.10;93.20;;;;;;5237816;28;19920;-28
2022/03/16 07:15:07;;;;;;;;;;;13.10;93.40;;;;;;5240480;28;20154;-28
2022/03/16 07:17:38;;;;;;;;;;;12.90;93.40;;;;;;5242026;28;20435;-29
2022/03/16 07:20:09;;;;;;;;;;;12.90;93.70;;;;;;5219083;28;19928;-28
2022/03/16 07:22:42;;;;;;;;;;;12.80;93.60;;;;;;5221861;28;19925;-32
2022/03/16 07:25:20;;;;;;;;;;;12.80;93.60;;;;;;5233669;28;19932;-29
2022/03/16 07:27:51;;;;;;;;;;;12.70;93.70;;;;;;5244930;28;19935;-29
2022/03/16 07:30:23;;;;;;;;;;;12.70;93.80;;;;;;5235344;28;20378;-29
2022/03/16 07:32:54;;;;;;;;;;;12.70;94.00;;;;;;5236563;28;19932;-29
2022/03/16 07:35:28;;;;;;;;;;;12.60;94.00;;;;;;5243144;28;19928;-29
2022/03/16 07:38:02;;;;;;;;;;;12.50;94.00;;;;;;5260047;28;20301;-29
2022/03/16 07:40:35;;;;;;;;;;;12.40;94.00;;;;;;5238161;28;19956;-29
2022/03/16 07:43:07;;;;;;;;;;;12.40;94.10;;;;;;5240248;28;19944;-29
2022/03/16 07:45:38;;;;;;;;;;;12.30;94.20;;;;;;5237167;28;20459;-29
2022/03/16 07:48:11;;;;;;;;;;;12.30;94.40;;;;;;5241058;28;19947;-29
2022/03/16 07:50:43;;;;;;;;;;;12.20;94.40;;;;;;5238904;28;19984;-29
2022/03/16 07:53:18;;;;;;;;;;;12.20;94.60;;;;;;5237866;28;19932;-29
2022/03/16 07:55:51;;;;;;;;;;;12.20;94.80;;;;;;5233596;28;19928;-29
2022/03/16 07:58:24;;;;;;;49.05;39.22;;;12.50;94.40;;;;;;5236483;28;19936;-29
2022/03/16 08:00:55;;;;;;;;;;;12.80;93.90;;;;;;5242199;28;20116;-33
2022/03/16 08:03:27;;;;;;;45.20;38.23;;;13.00;93.50;;;;;;5236646;28;19921;-32
2022/03/16 08:05:59;;;;;;;;;;;13.20;93.10;;;;;;5240893;28;20048;-29
2022/03/16 08:08:31;;;;;;;;;;;13.40;92.80;;;;;;5231808;28;20015;-32
2022/03/16 08:11:03;;;;;;;;;;;13.60;92.50;;;;;;5236347;28;19960;-30
2022/03/16 08:13:34;;;;;;;;;;;13.80;92.60;;;;;;5237604;28;19920;-33
2022/03/16 08:16:05;;;;;;;;;;;14.00;93.30;;;;;;5227746;28;19924;-30
2022/03/16 08:18:37;;;;;;;;;;;14.20;93.80;;;;;;5234290;28;20003;-30
2022/03/16 08:21:08;;;;;;;;;;;14.40;94.10;;;;;;5216663;28;19928;-30
2022/03/16 08:23:39;;;;;;;;;;;14.60;92.70;;;;;;5230422;28;20377;-31
2022/03/16 08:26:10;;;;;;;;;;;14.70;91.40;;;;;;5238206;28;19964;-29
2022/03/16 08:28:42;;;;;;;;;;;14.80;91.10;;;;;;5234991;28;19927;-28
2022/03/16 08:31:14;;;;;;;;;;;14.90;90.90;;;;;;5241416;28;19921;-30
2022/03/16 08:33:48;;;;;;;;;;;14.90;90.80;;;;;;5216590;28;19920;-29
2022/03/16 08:36:18;;;;;;;;;;;15.00;90.70;;;;;;5241208;28;19931;-30
2022/03/16 08:38:49;;;;;;;;;;;15.00;90.90;;;;;;5220743;28;19932;-29
2022/03/16 08:41:20;;;;;;;;;;;15.10;92.70;;;;;;5239766;28;20034;-29
2022/03/16 08:43:51;;;;;;;;;;;15.20;93.30;;;;;;5237483;28;19924;-29
2022/03/16 08:46:22;;;;;;;;;;;15.30;94.00;;;;;;5241213;28;19920;-30
2022/03/16 08:48:53;;;;;;;;;;;15.30;93.80;;;;;;5241682;28;19956;-30
2022/03/16 08:51:24;;;;;;;;;;;15.40;94.20;;;;;;5234941;28;20022;-29
2022/03/16 08:53:55;;;;;;;;;;;15.40;92.20;;;;;;5232950;28;19925;-30
2022/03/16 08:56:26;;;;;;;;;;;15.40;91.40;;;;;;5233872;28;19927;-31
2022/03/16 08:59:03;;;;;;;;;;;15.40;91.10;;;;;;5236714;28;19965;-29
2022/03/16 09:01:34;;;;;;;;;;;15.40;91.10;;;;;;5233931;28;19943;-29
2022/03/16 09:04:08;;;;;;;;;;;15.40;91.40;;;;;;5243498;28;19924;-30
2022/03/16 09:06:39;;;;;;;;;;;15.40;91.40;;;;;;5235179;28;20400;-29
2022/03/16 09:09:10;;;;;;;;;;;15.40;91.00;;;;;;5240474;28;20263;-30
2022/03/16 09:11:41;;;;;;;;;;;15.40;90.40;;;;;;5218787;28;19932;-29
2022/03/16 09:14:12;;;;;;;;;;;15.40;90.90;;;;;;5240969;28;19921;-34
2022/03/16 09:16:45;;;;;;;;;;;15.40;90.20;;;;;;5242560;28;19927;-29
2022/03/16 09:19:20;;;;;;;;;;;15.40;90.30;;;;;;5238688;28;19966;-30
2022/03/16 09:21:51;;;;;;;;;;;15.40;89.50;;;;;;5214997;28;19928;-29
2022/03/16 09:24:25;;;;;;;;;;;15.50;89.10;;;;;;5239457;28;19928;-30
2022/03/16 09:27:01;;;;;;;;;;;15.40;89.10;;;;;;5234916;28;20683;-30
2022/03/16 09:29:33;;;;;;;;;;;15.40;88.80;;;;;;5221693;28;19924;-29
2022/03/16 09:32:07;;;;;;;;;;;15.40;88.60;;;;;;5214832;28;19924;-30
2022/03/16 09:34:40;;;;;;;;;;;15.40;88.70;;;;;;5221606;28;19927;-30
2022/03/16 09:37:11;;;;;;;;;;;15.30;88.60;;;;;;5238805;28;20019;-29
2022/03/16 09:39:42;;;;;;;;;;;15.30;88.60;;;;;;5234593;28;20328;-28
2022/03/16 09:42:20;;;;;;;;;;;15.30;88.50;;;;;;5237992;28;19951;-32
2022/03/16 09:44:52;;;;;;;;;;;15.40;88.40;;;;;;5240258;28;19920;-31
2022/03/16 09:55:20;;;;;;;;;;;15.30;87.90;;;;;;5294095;27;19927;-30
2022/03/16 09:57:51;;;;;;;;;;;15.30;87.20;;;;;;5240498;28;20281;-28
2022/03/16 10:00:22;;;;;;;;;;;15.20;86.70;;;;;;5294821;28;19928;-35
2022/03/16 10:03:02;;;;;;;;;;;15.20;86.60;;;;;;5285303;28;19928;-29
2022/03/16 10:05:35;;;;;;;;;;;15.20;86.70;;;;;;5291876;28;19928;-29
2022/03/16 10:08:08;;;;;;;;;;;15.10;86.70;;;;;;5290114;28;19924;-31
2022/03/16 10:13:29;;;;;;;;;;;15.10;86.10;;;;;;5291510;28;19924;-31
2022/03/16 10:16:10;;;;;;;;;;;15.10;85.80;;;;;;5282368;28;19924;-28
2022/03/16 10:18:46;;;;;;;;;;;15.10;85.70;;;;;;5288293;28;19958;-37
2022/03/16 10:21:18;;;;;;;;;;;15.10;85.50;;;;;;5289704;28;20405;-31
2022/03/16 10:23:49;;;;;;;;;;;15.00;85.40;;;;;;5292334;28;19928;-29
2022/03/16 10:26:21;;;;;;;;;;;15.10;85.30;;;;;;5289907;28;19928;-29
2022/03/16 10:29:01;;;;;;;;;;;15.00;85.10;;;;;;5289046;28;19927;-32
2022/03/16 10:31:31;;;;;;;;;;;15.00;85.20;;;;;;5287219;28;20288;-29
2022/03/16 10:34:06;;;;;;;;;;;15.10;85.50;;;;;;5289999;27;19931;-28
2022/03/16 10:36:39;;;;;;;;;;;15.10;84.90;;;;;;5293989;28;20578;-30
2022/03/16 10:39:11;;;;;;;;;;;15.00;84.30;;;;;;5288327;28;20385;-29
2022/03/16 10:47:26;;;;;;;;;;;15.00;84.00;;;;;;5260934;28;19924;-28
2022/03/16 10:50:07;;;;;;;;;;;15.00;83.70;;;;;;5260436;28;19970;-33
2022/03/16 10:52:58;;;;;;;;;;;15.00;83.50;;;;;;5236423;28;19925;-28
2022/03/16 10:55:29;;;;;;;;;;;15.00;83.40;;;;;;5238994;28;19928;-29
2022/03/16 10:58:00;;;;;;;;;;;15.00;83.70;;;;;;5231727;28;19956;-29
2022/03/16 11:00:32;;;;;;;;;;;15.00;83.40;;;;;;5202349;28;19936;-31
2022/03/16 11:03:06;;;;;;;;;;;15.00;84.20;;;;;;5199847;28;20420;-39
2022/03/16 11:05:37;;;;;;;;;;;15.10;83.90;;;;;;5221390;28;19960;-33
2022/03/16 11:08:09;;;;;;;;;;;15.00;84.70;;;;;;5213718;28;20411;-34
2022/03/16 11:10:40;;;;;;;;;;;15.00;84.10;;;;;;5221579;28;19929;-30
2022/03/16 11:13:30;;;;;;;;;;;15.00;84.10;;;;;;5230613;28;19928;-30
2022/03/16 11:16:02;;;;;;;;;;;15.00;83.90;;;;;;5237861;28;19931;-30
2022/03/16 11:18:37;;;;;;;;;;;15.00;83.60;;;;;;5239656;28;19925;-33
2022/03/16 11:21:09;;;;;;;;;;;14.90;83.70;;;;;;5218527;28;19925;-30
2022/03/16 11:26:37;;;;;;;;;;;14.90;83.40;;;;;;5279366;28;19924;-34
2022/03/16 11:29:16;;;;;;;;;;;14.90;83.30;;;;;;5276872;28;20284;-30
2022/03/16 11:31:47;;;;;;;;;;;14.90;83.30;;;;;;5282132;28;19928;-33
2022/03/16 11:34:22;;;;;;;;;;;15.00;83.10;;;;;;5280974;28;20392;-36
2022/03/16 11:37:07;;;;;;;;;;;15.00;83.40;;;;;;5277750;28;19924;-34
2022/03/16 11:39:45;;;;;;;;;;;15.00;83.50;;;;;;5279959;28;19985;-30
2022/03/16 11:42:17;;;;;;;;;;;15.00;83.30;;;;;;5279208;28;19924;-30
2022/03/16 11:44:47;;;;;;;;;;;15.00;83.30;;;;;;5280709;28;20350;-30
2022/03/16 11:47:24;;;;;;;;;;;15.00;83.40;;;;;;5279356;28;19923;-32
2022/03/16 11:50:05;;;;;;;;;;;14.90;83.00;;;;;;5277013;28;20292;-31
2022/03/16 11:52:56;;;;;;;;;;;14.90;82.80;;;;;;5274059;28;20369;-31
2022/03/16 11:55:44;;;;;;;;;;;15.00;83.10;;;;;;5285079;28;19927;-30
2022/03/16 11:58:15;;;;;;;;;;;15.00;83.00;;;;;;5275981;28;19970;-37
2022/03/16 12:00:48;;;;;;;;;;;15.00;83.50;;;;;;5283207;28;20280;-32
2022/03/16 12:03:20;;;;;;;;;;;15.00;83.90;;;;;;5275694;28;19955;-32
2022/03/16 12:05:54;;;;;;;;;;;15.00;84.30;;;;;;5276663;28;19924;-30
2022/03/16 12:08:29;;;;;;;;;;;15.10;83.70;;;;;;5279247;28;19925;-38
2022/03/16 12:13:50;;;;;;;;;;;15.10;85.20;;;;;;5278320;28;19931;-30
2022/03/16 12:16:21;;;;;;;;;;;15.10;84.40;;;;;;5279389;28;19923;-33
2022/03/16 12:18:52;;;;;;;;;;;15.10;83.60;;;;;;5277892;28;19924;-39
2022/03/16 12:21:28;;;;;;;;;;;14.80;82.60;;;;;;5280775;28;20431;-31
2022/03/16 12:25:08;;;;;;;38.30;34.33;;;13.90;85.00;;;;;;5278661;28;19977;-32
2022/03/16 12:29:49;;;;;;;;;;;13.00;87.50;;;;;;5275603;28;19920;-31
2022/03/16 12:32:20;;;;;;;;;;;12.80;87.40;;;;;;5276217;28;19920;-31
2022/03/16 12:34:51;;;;;;;;;;;12.70;88.30;;;;;;5278375;28;19942;-31
2022/03/16 12:37:23;;;;;;;;;;;12.70;88.00;;;;;;5280282;28;19919;-35
2022/03/16 12:39:57;;;;;;;;;;;12.60;88.70;;;;;;5275980;28;19924;-37
2022/03/16 12:42:31;;;;;;;;;;;12.60;88.40;;;;;;5282350;28;20280;-37
2022/03/16 12:45:09;;;;;;;;;;;12.60;88.60;;;;;;5274867;28;19920;-33
2022/03/16 12:47:42;;;;;;;;;;;12.60;88.80;;;;;;5274679;28;20003;-30
2022/03/16 12:50:13;;;;;;;;;;;12.60;87.90;;;;;;5274752;28;19927;-28
2022/03/16 12:52:50;;;;;;;;;;;12.60;87.90;;;;;;5272360;28;19924;-40
2022/03/16 12:55:21;;;;;;;;;;;12.60;87.90;;;;;;5280676;28;19919;-31
2022/03/16 12:57:55;;;;;;;;;;;12.60;88.00;;;;;;5280475;28;19919;-38
2022/03/16 13:00:38;;;;;;;;;;;12.60;88.00;;;;;;5272992;28;20047;-34
2022/03/16 13:03:15;;;;;;;;;;;12.60;88.90;;;;;;5280856;28;19958;-36
2022/03/16 13:05:47;;;;;;;;;;;12.60;88.40;;;;;;5278118;28;19958;-31
2022/03/16 13:08:18;;;;;;;;;;;12.60;88.80;;;;;;5282103;28;19955;-35
2022/03/16 13:11:34;;;;;;;;;;;12.60;88.80;;;;;;5274546;28;19920;-32
2022/03/16 13:14:06;;;;;;;;;;;12.70;88.50;;;;;;5276065;28;19920;-29
2022/03/16 13:16:38;;;;;;;;;;;12.60;88.80;;;;;;5275537;28;19919;-31
2022/03/16 13:19:10;;;;;;;;;;;12.70;88.30;;;;;;5272832;28;21244;-40
2022/03/16 13:21:43;;;;;;;;;;;12.70;88.70;;;;;;5273114;28;20311;-31
2022/03/16 13:24:24;;;;;;;;;;;12.70;88.60;;;;;;5274635;28;19924;-35
2022/03/16 13:27:06;;;;;;;;;;;12.70;88.90;;;;;;5270686;28;20356;-36
2022/03/16 13:29:38;;;;;;;;;;;12.70;89.60;;;;;;5274428;28;19923;-36
2022/03/16 13:32:12;;;;;;;;;;;12.70;90.10;;;;;;5281356;28;19927;-38
2022/03/16 13:34:45;;;;;;;;;;;12.70;89.70;;;;;;5280179;28;19920;-37
2022/03/16 13:37:24;;;;;;;;;;;12.70;89.30;;;;;;5276646;28;20431;-32
2022/03/16 13:40:09;;;;;;;;;;;12.70;89.60;;;;;;5276461;28;19920;-35
2022/03/16 13:42:46;;;;;;;;;;;12.70;90.40;;;;;;5276961;28;20284;-34
2022/03/16 13:45:31;;;;;;;;;;;12.60;89.10;;;;;;5275264;28;19981;-34
2022/03/16 13:48:34;;;;;;;;;;;12.60;89.10;;;;;;5274798;28;19965;-30
2022/03/16 13:51:11;;;;;;;;;;;12.60;89.80;;;;;;5180833;28;19921;-28
2022/03/16 13:53:43;;;;;;;;;;;12.60;90.10;;;;;;5153753;28;19929;-34
2022/03/16 13:56:21;;;;;;;;;;;12.70;90.00;;;;;;5181969;28;19927;-28
2022/03/16 13:58:53;;;;;;;;;;;12.70;90.30;;;;;;5181795;28;19925;-38
2022/03/16 14:01:28;;;;;;;;;;;12.70;90.10;;;;;;5182226;28;19954;-34
2022/03/16 14:04:05;;;;;;;;;;;12.70;89.90;;;;;;5182031;28;19925;-34
2022/03/16 14:06:38;;;;;;;;;;;12.80;89.30;;;;;;5165913;28;19930;-40
2022/03/16 14:09:34;;;;;;;;;;;12.80;89.70;;;;;;5181580;28;19979;-35
2022/03/16 14:12:10;;;;;;;;;;;12.80;88.50;;;;;;5179058;28;19926;-36
2022/03/16 14:14:45;;;;;;;;;;;12.90;90.00;;;;;;5166232;28;20427;-34
2022/03/16 14:17:16;;;;;;;;;;;13.00;89.90;;;;;;5182352;28;19925;-31
2022/03/16 14:19:48;;;;;;;;;;;13.10;89.50;;;;;;5181745;28;19992;-35
2022/03/16 14:22:19;;;;;;;32.70;29.40;;;13.20;89.30;;;;;;5181531;28;19925;-36
2022/03/16 14:24:50;;;;;;;;;;;13.30;89.50;;;;;;5181875;28;19925;-37
2022/03/16 14:27:26;;;;;;;;;;;13.50;87.80;;;;;;5228564;28;19932;-32
2022/03/16 14:29:57;;;;;;;;;;;13.50;88.90;;;;;;5274398;28;19927;-38
2022/03/16 14:32:32;;;;;;;;;;;13.60;90.50;;;;;;5278294;28;19923;-38
2022/03/16 14:35:06;;;;;;;;;;;13.60;90.40;;;;;;5271041;28;19920;-34
2022/03/16 14:37:37;;;;;;;;;;;13.60;90.20;;;;;;5282234;28;19962;-34
2022/03/16 14:40:09;;;;;;;;;;;13.60;90.30;;;;;;5275667;28;19920;-33
2022/03/16 14:42:42;;;;;;;;;;;13.60;90.80;;;;;;5281718;28;19920;-35
2022/03/16 14:45:16;;;;;;;;;;;13.50;90.90;;;;;;5277430;28;19919;-37
2022/03/16 14:47:47;;;;;;;;;;;13.50;90.80;;;;;;5273043;28;19920;-36
2022/03/16 14:50:18;;;;;;;;;;;13.40;90.50;;;;;;5284848;28;19920;-37
2022/03/16 14:52:50;;;;;;;;;;;13.40;90.90;;;;;;5283440;28;19926;-33
2022/03/16 14:55:22;;;;;;;;;;;13.30;91.20;;;;;;5282529;28;19927;-35
2022/03/16 15:01:19;;;;;;;;;;;13.20;91.40;;;;;;5285357;28;19915;-35
2022/03/16 15:03:50;;;;;;;;;;;13.20;91.60;;;;;;5280784;28;19924;-31
2022/03/16 15:06:21;;;;;;;;;;;13.10;91.90;;;;;;5282440;28;19919;-33
2022/03/16 15:08:54;;;;;;;;;;;13.10;92.50;;;;;;5280040;28;19920;-35
2022/03/16 15:11:25;;;;;;;;;;;13.00;92.50;;;;;;5280689;28;20033;-32
2022/03/16 15:13:59;;;;;;;;;;;13.00;92.50;;;;;;5281754;28;19935;-37
2022/03/16 15:16:29;;;;;;;;;;;12.90;92.60;;;;;;5276772;28;19924;-35